KPWA/PWA METAR and TAF weather

Enter ICAO airport designator
Station Type Date Time Source
KPWA METAR 2019/12/12 08:53 UTC NOAA

KPWA 120853Z AUTO 19019G26KT 10SM CLR 06/01 A3022 RMK AO2 PK WND 18027/0827 SLP235 T00610011 55008


Station Type Date Time Source
KPWA Decoded METAR 2019/12/12 08:53 UTC NOAA

WILEY POST, OK, United States (KPWA) 35-32N 97-39W 397M
Dec 12, 2019 - 03:53 AM EST / 2019.12.12 0853 UTC
Wind: from the S (190 degrees) at 22 MPH (19 KT) gusting to 30 MPH (26 KT):0
Visibility: 10 mile(s):0
Sky conditions: clear
Temperature: 43.0 F (6.1 C)
Dew Point: 34.0 F (1.1 C)
Relative Humidity: 70%
Pressure (altimeter): 30.22 in. Hg (1023 hPa)
Pressure tendency: 0.02 inches (0.8 hPa) lower than three hours ago
ob: KPWA 120853Z AUTO 19019G26KT 10SM CLR 06/01 A3022 RMK AO2 PK WND 18027/0827 SLP235 T00610011 55008
cycle: 9

Station Type Date Time Source
KPWA TAF UTC NOAA

Error!

Example: see airport list